createdAt,value
2022-08-30T00:13:41.568Z,14906.31738
2022-08-30T00:28:43.791Z,14165.66406
2022-08-30T00:43:45.969Z,7690.64453
2022-08-30T00:58:48.225Z,1351.17639
2022-08-30T01:13:50.591Z,947.77545
2022-08-30T01:28:52.768Z,800.29553
2022-08-30T01:43:55.187Z,676.67261
2022-08-30T01:59:01.828Z,530.2771
2022-08-30T02:14:05.384Z,361.10895
2022-08-30T02:29:07.623Z,164.83051
2022-08-30T02:44:09.859Z,45.54527
2022-08-30T02:59:12.100Z,5.42206
2022-08-30T03:14:14.305Z,0
2022-08-30T03:29:16.536Z,0
2022-08-30T03:44:18.763Z,0
2022-08-30T03:59:21.428Z,0
2022-08-30T04:14:23.589Z,0
2022-08-30T04:29:25.800Z,0
2022-08-30T04:44:28.128Z,0
2022-08-30T04:59:30.355Z,0
2022-08-30T05:14:32.627Z,0
2022-08-30T05:29:35.519Z,0
2022-08-30T05:44:37.851Z,0
2022-08-30T05:59:46.676Z,0
2022-08-30T06:14:48.965Z,0
2022-08-30T06:29:51.173Z,0
2022-08-30T06:44:53.430Z,0
2022-08-30T06:59:57.298Z,0
2022-08-30T07:14:59.631Z,0
2022-08-30T07:30:01.832Z,0
2022-08-30T07:45:04.205Z,0
2022-08-30T08:00:06.402Z,0
2022-08-30T08:15:09.076Z,0
2022-08-30T08:30:11.446Z,0
2022-08-30T08:45:16.841Z,0
2022-08-30T09:00:19.401Z,0
2022-08-30T09:15:21.615Z,0
2022-08-30T09:30:23.790Z,0
2022-08-30T09:45:27.857Z,0
2022-08-30T10:00:30.172Z,0
2022-08-30T10:15:32.355Z,0
2022-08-30T10:30:34.724Z,0
2022-08-30T10:45:36.945Z,0
2022-08-30T11:00:39.115Z,0
2022-08-30T11:15:44.060Z,0
2022-08-30T11:30:46.266Z,0
2022-08-30T11:45:48.583Z,0
2022-08-30T12:00:52.890Z,0
2022-08-30T12:15:55.356Z,0
2022-08-30T12:30:57.676Z,1.08441
2022-08-30T12:46:00.840Z,7.59088
2022-08-30T13:01:09.789Z,55.30497
2022-08-30T13:16:12.085Z,172.42139
2022-08-30T13:31:15.064Z,320.98575
2022-08-30T13:46:18.558Z,470.63449
2022-08-30T14:01:20.811Z,620.28326
2022-08-30T14:16:27.012Z,16786.68555
2022-08-30T14:31:29.707Z,2241.47803
2022-08-30T14:46:32.105Z,4955.75928
2022-08-30T15:01:37.011Z,5265.90088
2022-08-30T15:16:39.607Z,7595.21631
2022-08-30T15:31:41.983Z,7045.41992
2022-08-30T15:46:44.299Z,5546.76367
2022-08-30T16:01:47.845Z,4977.44775
2022-08-30T16:16:50.235Z,5263.73242
2022-08-30T16:31:52.496Z,5641.10742
2022-08-30T16:46:54.825Z,5443.74463
2022-08-30T17:01:57.254Z,5761.47705
2022-08-30T17:17:00.576Z,6090.05371
2022-08-30T17:32:03.074Z,6164.87793
2022-08-30T17:47:05.260Z,6545.50635
2022-08-30T18:02:07.518Z,6742.86914
2022-08-30T18:17:13.709Z,7257.96436
2022-08-30T18:32:16.091Z,7288.32812
2022-08-30T18:47:18.280Z,7561.59961
2022-08-30T19:02:27.532Z,7457.49609
2022-08-30T19:17:30.225Z,7292.66553
2022-08-30T19:32:32.496Z,7371.82764
2022-08-30T19:47:34.769Z,7819.68945
2022-08-30T20:02:36.926Z,7644.01514
2022-08-30T20:18:02.531Z,7262.30225
2022-08-30T20:33:08.610Z,7169.04297
2022-08-30T20:48:11.383Z,7298.08789
2022-08-30T21:03:25.844Z,7157.11426
2022-08-30T21:18:29.535Z,7192.8999
2022-08-30T21:33:31.860Z,7408.69775
2022-08-30T21:48:34.072Z,7899.93604
2022-08-30T22:03:39.901Z,8922.53613
2022-08-30T22:18:42.080Z,10397.33496
2022-08-30T22:33:44.301Z,11249.68262
2022-08-30T22:48:46.499Z,12141.06836
2022-08-30T23:03:48.699Z,12785.20898
2022-08-30T23:18:50.934Z,13348.01855
2022-08-30T23:33:53.195Z,14060.47656
2022-08-30T23:48:55.408Z,14776.1875
